Time;durP1;ratioP1;P1;durP2;ratioP2;P2;SDS_P1;SDS_P2;PMS_P1;PMS_P2;Temp;Humidity;BMP_temperature;BMP_pressure;BME280_temperature;BME280_humidity;BME280_pressure;Samples;Min_cycle;Max_cycle;Signal;HPM_P1;HPM_P2
2024/02/02 00:01:30;;;;;;;;;;;;;;;5.13;65.38;99429.38;5049240;28;19929;-55
2024/02/02 00:04:19;;;;;;;;;;;;;;;4.98;65.91;99424.50;5049658;28;20392;-56
2024/02/02 00:07:07;;;;;;;;;;;;;;;5.00;65.79;99419.66;5046755;28;19924;-55
2024/02/02 00:09:56;;;;;;;;;;;;;;;5.13;65.77;99424.00;5048149;28;19959;-56
2024/02/02 00:12:44;;;;;;;;;;;;;;;5.18;65.08;99408.75;5035079;28;19925;-59
2024/02/02 00:15:32;;;;;;;;;;;;;;;5.02;65.77;99417.56;5049545;28;20400;-55
2024/02/02 00:18:20;;;;;;;;;;;;;;;5.02;65.76;99411.38;5047649;28;20023;-55
2024/02/02 00:21:09;;;;;;;;;;;;;;;5.08;65.41;99410.41;5049556;28;19925;-56
2024/02/02 00:23:57;;;;;;;;;;;;;;;4.92;65.72;99415.50;5041842;28;20019;-56
2024/02/02 00:26:46;;;;;;;;;;;;;;;5.02;66.24;99414.88;5047137;28;19925;-56
2024/02/02 00:29:34;;;;;;;;;;;;;;;5.15;65.44;99411.09;5042063;28;19931;-55
2024/02/02 00:32:22;;;;;;;;;;;;;;;5.20;64.64;99411.19;5049581;28;19981;-55
2024/02/02 00:35:11;;;;;;;;;;;;;;;5.10;64.73;99409.09;5049479;28;19925;-56
2024/02/02 00:37:59;;;;;;;;;;;;;;;4.99;65.81;99410.78;5043300;28;20372;-56
2024/02/02 00:40:47;;;;;;;;;;;;;;;5.04;65.71;99412.75;5040326;28;20360;-55
2024/02/02 00:43:37;;;;;;;;;;;;;;;4.94;65.44;99407.16;5038667;28;19924;-55
2024/02/02 00:46:25;;;;;;;;;;;;;;;5.05;65.50;99409.00;5049688;28;19924;-56
2024/02/02 00:49:13;;;;;;;;;;;;;;;4.79;66.30;99410.34;5046060;28;19925;-55
2024/02/02 00:52:01;;;;;;;;;;;;;;;4.99;65.26;99408.09;5046778;28;19924;-56
2024/02/02 00:54:49;;;;;;;;;;;;;;;4.86;65.67;99405.66;5042179;28;20070;-56
2024/02/02 00:57:37;;;;;;;;;;;;;;;4.81;66.04;99419.03;5045173;28;20081;-55
2024/02/02 01:00:26;;;;;;;;;;;;;;;4.75;66.21;99413.78;5048302;28;19968;-55
2024/02/02 01:03:15;;;;;;;;;;;;;;;4.79;65.69;99413.03;5047257;28;19932;-55
2024/02/02 01:06:03;;;;;;;;;;;;;;;4.86;65.46;99404.84;5045747;28;20055;-56
2024/02/02 01:08:51;;;;;;;;;;;;;;;4.86;65.59;99402.97;5044888;28;19936;-55
2024/02/02 01:11:39;;;;;;;;;;;;;;;4.88;65.65;99394.66;5043388;28;19935;-55
2024/02/02 01:14:27;;;;;;;;;;;;;;;4.75;66.11;99387.66;5046460;28;20015;-59
2024/02/02 01:17:17;;;;;;;;;;;;;;;4.71;66.02;99379.22;5042572;28;19924;-55
2024/02/02 01:20:06;;;;;;;;;;;;;;;4.61;66.17;99380.88;5036401;28;19928;-56
2024/02/02 01:22:54;;;;;;;;;;;;;;;4.53;66.14;99378.53;5044729;28;19931;-55
2024/02/02 01:25:42;;;;;;;;;;;;;;;4.72;66.12;99378.16;5044775;28;19932;-55
2024/02/02 01:28:30;;;;;;;;;;;;;;;4.59;65.91;99377.63;5052089;28;20382;-56
2024/02/02 01:31:18;;;;;;;;;;;;;;;4.41;66.74;99373.19;5047584;28;19931;-56
2024/02/02 01:34:09;;;;;;;;;;;;;;;4.58;66.07;99379.50;5041587;28;19994;-58
2024/02/02 01:36:57;;;;;;;;;;;;;;;4.56;66.47;99380.78;5045709;28;19929;-56
2024/02/02 01:39:45;;;;;;;;;;;;;;;4.60;66.68;99377.38;5034278;28;19925;-57
2024/02/02 01:42:33;;;;;;;;;;;;;;;4.53;66.89;99379.41;5048204;28;19924;-57
2024/02/02 01:45:21;;;;;;;;;;;;;;;4.65;66.32;99376.69;5046835;28;20299;-56
2024/02/02 01:48:09;;;;;;;;;;;;;;;4.42;66.36;99381.03;5046530;28;19929;-55
2024/02/02 01:50:59;;;;;;;;;;;;;;;4.53;66.84;99381.25;5042896;28;19925;-55
2024/02/02 01:53:47;;;;;;;;;;;;;;;4.60;66.03;99393.53;5047707;28;19978;-57
2024/02/02 01:56:35;;;;;;;;;;;;;;;4.58;66.19;99384.88;5049523;28;20078;-55
2024/02/02 01:59:24;;;;;;;;;;;;;;;4.45;66.90;99387.81;5049897;28;19925;-56
2024/02/02 02:02:12;;;;;;;;;;;;;;;4.34;66.93;99392.16;5048465;28;20595;-54
2024/02/02 02:05:00;;;;;;;;;;;;;;;4.38;66.88;99385.25;5040547;28;19925;-55
2024/02/02 02:07:49;;;;;;;;;;;;;;;4.49;66.60;99393.56;5042372;28;19936;-56
2024/02/02 02:10:37;;;;;;;;;;;;;;;4.31;67.11;99381.84;5050635;28;19936;-55
2024/02/02 02:13:26;;;;;;;;;;;;;;;4.47;66.91;99373.09;5047175;28;20017;-55
2024/02/02 02:16:14;;;;;;;;;;;;;;;4.58;66.39;99374.13;5049153;28;19964;-59
2024/02/02 02:19:04;;;;;;;;;;;;;;;4.52;66.87;99372.34;5039151;28;19925;-60
2024/02/02 02:21:53;;;;;;;;;;;;;;;4.47;66.73;99365.00;5038647;28;19936;-55
2024/02/02 02:24:42;;;;;;;;;;;;;;;4.45;66.78;99352.81;5050965;28;19986;-56
2024/02/02 02:27:30;;;;;;;;;;;;;;;4.33;66.95;99362.78;5044733;28;19924;-55
2024/02/02 02:30:18;;;;;;;;;;;;;;;4.37;67.21;99354.03;5048987;28;19998;-56
2024/02/02 02:33:06;;;;;;;;;;;;;;;4.38;67.55;99349.44;5043610;28;20449;-55
2024/02/02 02:35:54;;;;;;;;;;;;;;;4.42;67.61;99355.97;5048603;28;19944;-57
2024/02/02 02:38:44;;;;;;;;;;;;;;;4.53;67.02;99346.25;5045665;28;19925;-55
2024/02/02 02:41:32;;;;;;;;;;;;;;;4.56;66.63;99343.91;5050502;28;19924;-56
2024/02/02 02:44:20;;;;;;;;;;;;;;;4.46;66.47;99343.69;5048960;28;20007;-55
2024/02/02 02:47:10;;;;;;;;;;;;;;;4.44;66.92;99352.00;5042128;28;20386;-55
2024/02/02 02:49:58;;;;;;;;;;;;;;;4.49;66.55;99351.31;5047662;28;20405;-55
2024/02/02 02:52:46;;;;;;;;;;;;;;;4.35;67.25;99349.91;5039621;28;20042;-55
2024/02/02 02:55:36;;;;;;;;;;;;;;;4.44;67.15;99359.28;5046517;28;20431;-58
2024/02/02 02:58:24;;;;;;;;;;;;;;;4.30;67.15;99353.31;5050303;28;19937;-56
2024/02/02 03:01:37;;;;;;;;;;;;;;;4.37;67.23;99345.13;5051010;28;19937;-55
2024/02/02 03:04:32;;;;;;;;;;;;;;;4.30;67.66;99336.34;5050658;28;20278;-55
2024/02/02 03:07:20;;;;;;;;;;;;;;;4.44;66.53;99349.31;5042410;28;20124;-58
2024/02/02 03:10:08;;;;;;;;;;;;;;;4.41;66.82;99352.47;5044728;28;20027;-55
2024/02/02 03:12:58;;;;;;;;;;;;;;;4.45;66.84;99350.13;5043988;28;19932;-55
2024/02/02 03:15:47;;;;;;;;;;;;;;;4.39;66.88;99348.41;5048141;28;19929;-54
2024/02/02 03:18:35;;;;;;;;;;;;;;;4.36;67.01;99352.34;5045005;28;19932;-56
2024/02/02 03:21:23;;;;;;;;;;;;;;;4.51;66.79;99359.94;5048415;28;19925;-55
2024/02/02 03:24:12;;;;;;;;;;;;;;;4.47;67.32;99353.41;5039058;28;19932;-55
2024/02/02 03:27:00;;;;;;;;;;;;;;;4.53;66.54;99351.63;5042109;28;20027;-55
2024/02/02 03:29:49;;;;;;;;;;;;;;;4.36;66.76;99363.13;5047608;28;20027;-56
2024/02/02 03:32:37;;;;;;;;;;;;;;;4.34;66.87;99354.47;5040861;28;19925;-56
2024/02/02 03:35:26;;;;;;;;;;;;;;;4.36;66.44;99354.22;5049207;28;19925;-57
2024/02/02 03:38:14;;;;;;;;;;;;;;;4.23;67.13;99354.50;5044098;28;22003;-55
2024/02/02 03:41:03;;;;;;;;;;;;;;;4.28;67.86;99351.91;5050385;28;20066;-54
2024/02/02 03:43:53;;;;;;;;;;;;;;;4.16;67.84;99366.19;5043195;28;19939;-56
2024/02/02 03:46:43;;;;;;;;;;;;;;;4.29;67.29;99372.38;5043720;28;20364;-56
2024/02/02 03:49:33;;;;;;;;;;;;;;;4.31;67.68;99376.47;5045704;28;19967;-59
2024/02/02 03:52:24;;;;;;;;;;;;;;;4.35;67.31;99376.81;5040022;28;21671;-55
2024/02/02 03:55:12;;;;;;;;;;;;;;;4.49;67.10;99388.16;5048282;28;19936;-55
2024/02/02 03:58:00;;;;;;;;;;;;;;;4.50;66.82;99396.00;5047973;28;19931;-55
2024/02/02 04:00:48;;;;;;;;;;;;;;;4.52;66.80;99388.50;5042140;28;19935;-57
2024/02/02 04:03:37;;;;;;;;;;;;;;;4.44;66.97;99389.69;5045194;28;19978;-56
2024/02/02 04:06:26;;;;;;;;;;;;;;;4.40;67.72;99390.38;5042823;28;20497;-56
2024/02/02 04:09:14;;;;;;;;;;;;;;;4.42;67.30;99394.50;5039121;28;19932;-55
2024/02/02 04:12:02;;;;;;;;;;;;;;;4.52;67.24;99409.22;5036261;28;19935;-56
2024/02/02 04:14:51;;;;;;;;;;;;;;;4.53;67.70;99411.69;5046536;28;19925;-55
2024/02/02 04:17:39;;;;;;;;;;;;;;;4.62;67.08;99404.88;5044676;28;20012;-56
2024/02/02 04:20:29;;;;;;;;;;;;;;;4.63;66.91;99398.44;5040431;28;19932;-56
2024/02/02 04:23:17;;;;;;;;;;;;;;;4.35;67.01;99393.78;5047831;28;19947;-56
2024/02/02 04:26:05;;;;;;;;;;;;;;;4.34;68.02;99399.41;5041987;28;19983;-56
2024/02/02 04:28:56;;;;;;;;;;;;;;;4.22;67.59;99398.59;5044478;28;19924;-55
2024/02/02 04:31:44;;;;;;;;;;;;;;;4.39;67.42;99388.75;5045641;28;19931;-55
2024/02/02 04:34:32;;;;;;;;;;;;;;;4.08;68.10;99388.03;5048169;28;19925;-55
2024/02/02 04:37:22;;;;;;;;;;;;;;;4.23;67.38;99400.22;5041617;28;19943;-55
2024/02/02 04:40:10;;;;;;;;;;;;;;;4.26;68.01;99394.34;5044271;28;19925;-56
2024/02/02 04:42:59;;;;;;;;;;;;;;;4.20;67.77;99394.22;5048364;28;19932;-56
2024/02/02 04:45:47;;;;;;;;;;;;;;;4.17;67.61;99397.41;5047860;28;20413;-56
2024/02/02 04:48:35;;;;;;;;;;;;;;;4.22;67.76;99401.28;5023731;28;19925;-56
2024/02/02 04:51:23;;;;;;;;;;;;;;;4.29;67.66;99393.91;5043885;28;19925;-55
2024/02/02 04:54:12;;;;;;;;;;;;;;;4.26;67.48;99392.50;5039686;28;20314;-57
2024/02/02 04:57:01;;;;;;;;;;;;;;;4.33;68.07;99389.69;5035779;28;19929;-55
2024/02/02 04:59:49;;;;;;;;;;;;;;;4.40;67.73;99393.06;5045220;28;19983;-56
2024/02/02 05:02:38;;;;;;;;;;;;;;;4.51;67.28;99402.19;5038482;28;20019;-56
2024/02/02 05:05:26;;;;;;;;;;;;;;;4.40;67.22;99401.16;5041732;28;19925;-56
2024/02/02 05:08:15;;;;;;;;;;;;;;;4.53;67.51;99398.22;5040501;28;19925;-55
2024/02/02 05:11:06;;;;;;;;;;;;;;;4.52;66.75;99399.25;5042969;28;19928;-55
2024/02/02 05:13:54;;;;;;;;;;;;;;;4.67;66.96;99412.25;5031328;28;19924;-56
2024/02/02 05:16:42;;;;;;;;;;;;;;;4.79;66.36;99409.53;5047820;28;19928;-55
2024/02/02 05:19:31;;;;;;;;;;;;;;;4.79;66.08;99420.31;5040777;28;20327;-57
2024/02/02 05:22:19;;;;;;;;;;;;;;;4.87;65.54;99422.66;5048661;28;20017;-56
2024/02/02 05:25:07;;;;;;;;;;;;;;;4.93;65.12;99427.06;5045814;28;19924;-60
2024/02/02 05:27:56;;;;;;;;;;;;;;;4.80;65.58;99427.34;5043519;28;19925;-59
2024/02/02 05:30:44;;;;;;;;;;;;;;;4.96;65.06;99415.84;5037720;28;19925;-59
2024/02/02 05:33:32;;;;;;;;;;;;;;;4.89;66.09;99409.75;5042543;28;19929;-56
2024/02/02 05:36:20;;;;;;;;;;;;;;;5.05;65.51;99398.22;5041931;28;19931;-55
2024/02/02 05:39:09;;;;;;;;;;;;;;;5.03;65.76;99400.34;5042238;28;19929;-55
2024/02/02 05:41:58;;;;;;;;;;;;;;;5.10;65.42;99408.28;5045025;28;19925;-55
2024/02/02 05:44:48;;;;;;;;;;;;;;;5.07;65.35;99401.53;5047951;28;19928;-55
2024/02/02 05:47:36;;;;;;;;;;;;;;;5.07;65.79;99400.72;5044250;28;19963;-56
2024/02/02 05:50:24;;;;;;;;;;;;;;;5.18;65.68;99408.75;5049084;28;19932;-55
2024/02/02 05:53:12;;;;;;;;;;;;;;;5.35;64.89;99416.88;5047014;28;19928;-57
2024/02/02 05:56:01;;;;;;;;;;;;;;;5.29;65.09;99417.03;5039439;28;19925;-56
2024/02/02 05:58:49;;;;;;;;;;;;;;;5.21;64.95;99420.91;5050134;28;19932;-56
2024/02/02 06:01:38;;;;;;;;;;;;;;;5.26;65.21;99421.00;5047245;28;20326;-56
2024/02/02 06:04:27;;;;;;;;;;;;;;;5.29;65.46;99422.41;5048285;28;19928;-55
2024/02/02 06:07:16;;;;;;;;;;;;;;;5.27;65.08;99419.94;5049772;28;19932;-56
2024/02/02 06:10:04;;;;;;;;;;;;;;;5.17;65.44;99428.66;5037239;28;19933;-57
2024/02/02 06:12:53;;;;;;;;;;;;;;;5.23;65.34;99427.72;5047573;28;19928;-56
2024/02/02 06:15:41;;;;;;;;;;;;;;;5.30;65.65;99421.34;5048696;28;19925;-55
2024/02/02 06:18:30;;;;;;;;;;;;;;;5.29;65.33;99431.31;5032793;28;19924;-55
2024/02/02 06:21:18;;;;;;;;;;;;;;;5.22;64.47;99422.56;5050152;28;20374;-55
2024/02/02 06:24:07;;;;;;;;;;;;;;;5.26;65.46;99415.63;5050734;28;19925;-56
2024/02/02 06:26:56;;;;;;;;;;;;;;;5.47;64.45;99427.59;5043161;28;19925;-55
2024/02/02 06:29:44;;;;;;;;;;;;;;;5.45;64.82;99409.00;5043077;28;19928;-57
2024/02/02 06:32:32;;;;;;;;;;;;;;;5.20;65.27;99414.69;5041088;28;19946;-56
2024/02/02 06:35:21;;;;;;;;;;;;;;;5.55;64.30;99421.03;5044557;28;19948;-56
2024/02/02 06:38:09;;;;;;;;;;;;;;;5.50;64.13;99432.53;5042791;28;20309;-56
2024/02/02 06:40:57;;;;;;;;;;;;;;;5.56;64.23;99433.44;5042872;28;20244;-55
2024/02/02 06:43:46;;;;;;;;;;;;;;;5.60;64.67;99438.13;5050249;28;20301;-56
2024/02/02 06:46:34;;;;;;;;;;;;;;;5.53;64.77;99440.94;5048168;28;20054;-55
2024/02/02 06:49:24;;;;;;;;;;;;;;;5.60;63.99;99430.03;5051097;28;20298;-55
2024/02/02 06:52:14;;;;;;;;;;;;;;;5.49;63.58;99433.59;5048326;28;19971;-56
2024/02/02 06:55:02;;;;;;;;;;;;;;;5.70;64.13;99434.75;5048496;28;19961;-56
2024/02/02 06:57:50;;;;;;;;;;;;;;;5.52;64.49;99435.78;5051173;28;20318;-56
2024/02/02 07:00:38;;;;;;;;;;;;;;;5.49;64.31;99433.59;5051088;28;19932;-55
2024/02/02 07:03:26;;;;;;;;;;;;;;;5.74;63.32;99444.00;5048115;28;19924;-55
2024/02/02 07:06:15;;;;;;;;;;;;;;;5.64;63.40;99441.94;5051804;28;19925;-55
2024/02/02 07:09:06;;;;;;;;;;;;;;;5.55;64.22;99434.50;5050715;28;19925;-55
2024/02/02 07:11:56;;;;;;;;;;;;;;;5.59;64.02;99419.47;5043969;28;19933;-56
2024/02/02 07:14:47;;;;;;;;;;;;;;;5.74;63.70;99420.56;5049902;28;19987;-55
2024/02/02 07:17:36;;;;;;;;;;;;;;;5.70;63.64;99399.72;5047020;28;19955;-56
2024/02/02 07:20:43;;;;;;;;;;;;;;;5.57;63.78;99394.63;5039712;28;19925;-56
2024/02/02 07:23:35;;;;;;;;;;;;;;;5.69;64.17;99395.38;5049965;28;20030;-56
2024/02/02 07:26:28;;;;;;;;;;;;;;;5.92;63.27;99394.47;5046108;28;19980;-56
2024/02/02 07:29:25;;;;;;;;;;;;;;;5.71;63.63;99399.50;5044331;28;20029;-56
2024/02/02 07:32:14;;;;;;;;;;;;;;;5.73;63.93;99394.66;5045042;28;19940;-56
2024/02/02 07:35:02;;;;;;;;;;;;;;;5.71;63.75;99395.97;5045567;28;19939;-56
2024/02/02 07:37:50;;;;;;;;;;;;;;;5.74;63.66;99393.59;5042091;28;20042;-55
2024/02/02 07:40:45;;;;;;;;;;;;;;;5.69;63.40;99398.09;5048276;28;19932;-56
2024/02/02 07:43:34;;;;;;;;;;;;;;;5.82;63.14;99391.59;5037242;28;19924;-55
2024/02/02 07:46:22;;;;;;;;;;;;;;;5.80;63.86;99394.50;5048484;28;19924;-56
2024/02/02 07:49:11;;;;;;;;;;;;;;;5.91;62.80;99384.69;5049703;28;20398;-55
2024/02/02 07:51:59;;;;;;;;;;;;;;;5.68;63.50;99388.38;5036607;28;19925;-56
2024/02/02 07:54:47;;;;;;;;;;;;;;;5.89;62.85;99401.13;5043170;28;20302;-56
2024/02/02 07:57:35;;;;;;;;;;;;;;;5.96;63.23;99398.31;5046423;28;19931;-56
2024/02/02 08:00:25;;;;;;;;;;;;;;;5.91;63.08;99400.88;5045728;28;19925;-55
2024/02/02 08:03:13;;;;;;;;;;;;;;;5.70;63.42;99407.81;5038884;28;19925;-55
2024/02/02 08:06:01;;;;;;;;;;;;;;;5.86;62.65;99404.34;5050078;28;19929;-55
2024/02/02 08:08:49;;;;;;;;;;;;;;;5.82;63.32;99402.38;5045369;28;19929;-56
2024/02/02 08:11:37;;;;;;;;;;;;;;;5.82;63.33;99405.06;5038835;28;19978;-56
2024/02/02 08:14:25;;;;;;;;;;;;;;;5.94;62.98;99400.44;5044832;28;20382;-56
2024/02/02 08:17:15;;;;;;;;;;;;;;;5.94;63.18;99403.94;5044262;28;20370;-56
2024/02/02 08:20:06;;;;;;;;;;;;;;;6.17;62.33;99408.34;5044152;28;19935;-55
2024/02/02 08:22:54;;;;;;;;;;;;;;;5.96;62.84;99411.78;5043451;28;20453;-55
2024/02/02 08:25:42;;;;;;;;;;;;;;;6.13;61.86;99398.31;5043433;28;20402;-56
2024/02/02 08:28:30;;;;;;;;;;;;;;;6.18;61.79;99404.63;5047096;28;19924;-56
2024/02/02 08:31:26;;;;;;;;;;;;;;;6.12;62.11;99397.47;5044352;28;19925;-56
2024/02/02 08:34:15;;;;;;;;;;;;;;;6.04;61.90;99389.81;5042415;28;19925;-56
2024/02/02 08:37:04;;;;;;;;;;;;;;;6.10;61.89;99388.84;5045840;28;19925;-56
2024/02/02 08:39:52;;;;;;;;;;;;;;;6.18;62.34;99385.72;5047928;28;19925;-56
2024/02/02 08:42:40;;;;;;;;;;;;;;;6.17;62.15;99384.06;5043796;28;20007;-55
2024/02/02 08:45:55;;;;;;;;;;;;;;;6.27;61.94;99389.63;5045314;28;19925;-58
2024/02/02 08:48:45;;;;;;;;;;;;;;;6.15;62.17;99377.31;5026455;28;20039;-56
2024/02/02 08:51:52;;;;;;;;;;;;;;;6.26;61.70;99382.59;5043923;28;20013;-56
2024/02/02 08:54:48;;;;;;;;;;;;;;;6.23;62.24;99375.03;5045626;28;19933;-56
2024/02/02 08:57:36;;;;;;;;;;;;;;;6.41;61.23;99368.53;5037846;28;20370;-56
2024/02/02 09:00:32;;;;;;;;;;;;;;;6.49;61.23;99375.38;5048277;28;19925;-56
2024/02/02 09:03:24;;;;;;;;;;;;;;;6.43;61.63;99360.97;5041824;28;20397;-56
2024/02/02 09:06:14;;;;;;;;;;;;;;;6.51;61.55;99373.25;5040085;28;20382;-55
2024/02/02 09:09:02;;;;;;;;;;;;;;;6.44;61.94;99380.69;5045999;28;19924;-55
2024/02/02 09:11:54;;;;;;;;;;;;;;;6.42;62.08;99380.94;5032149;28;19932;-55
2024/02/02 09:14:42;;;;;;;;;;;;;;;6.56;62.01;99381.44;5048955;28;19925;-55
2024/02/02 09:17:30;;;;;;;;;;;;;;;6.33;62.88;99378.91;5049309;28;19925;-56
2024/02/02 09:20:20;;;;;;;;;;;;;;;6.65;62.36;99385.31;5037082;28;19950;-55
2024/02/02 09:23:08;;;;;;;;;;;;;;;6.47;62.73;99394.53;5042162;28;20271;-56
2024/02/02 09:25:56;;;;;;;;;;;;;;;6.43;63.69;99392.56;5044569;28;19925;-55
2024/02/02 09:28:46;;;;;;;;;;;;;;;6.75;63.46;99390.84;5042440;28;20437;-57
2024/02/02 09:31:37;;;;;;;;;;;;;;;6.50;65.14;99399.44;5042078;28;19971;-56
2024/02/02 09:34:25;;;;;;;;;;;;;;;6.69;64.51;99397.25;5048367;28;19933;-56
2024/02/02 09:37:16;;;;;;;;;;;;;;;6.67;64.43;99391.28;5044249;28;20401;-55
2024/02/02 09:40:05;;;;;;;;;;;;;;;6.59;64.78;99399.00;5049520;28;19932;-56
2024/02/02 09:42:59;;;;;;;;;;;;;;;6.36;66.20;99389.22;5041041;28;20756;-56
2024/02/02 09:45:54;;;;;;;;;;;;;;;6.54;66.41;99388.94;5046972;28;19933;-56
2024/02/02 09:48:46;;;;;;;;;;;;;;;6.54;66.31;99395.16;5045184;28;19925;-55
2024/02/02 09:51:34;;;;;;;;;;;;;;;6.62;66.59;99404.72;5044744;28;21452;-55
2024/02/02 09:54:25;;;;;;;;;;;;;;;6.54;67.04;99413.25;5049051;28;19966;-55
2024/02/02 09:57:15;;;;;;;;;;;;;;;6.67;67.42;99404.81;5044849;28;19931;-56
2024/02/02 10:00:04;;;;;;;;;;;;;;;6.68;67.23;99406.44;5047700;28;20413;-57
2024/02/02 10:03:01;;;;;;;;;;;;;;;6.82;66.53;99407.72;5044690;28;20012;-55
2024/02/02 10:05:54;;;;;;;;;;;;;;;6.94;66.65;99387.84;5044773;28;19958;-55
2024/02/02 10:08:46;;;;;;;;;;;;;;;6.88;67.04;99389.69;5046014;28;20411;-56
2024/02/02 10:11:49;;;;;;;;;;;;;;;7.03;66.88;99384.47;5045682;28;19929;-56
2024/02/02 10:14:58;;;;;;;;;;;;;;;6.99;66.94;99371.72;5045937;28;19933;-56
2024/02/02 10:17:53;;;;;;;;;;;;;;;6.95;67.53;99378.69;5030642;28;20298;-56
2024/02/02 10:20:44;;;;;;;;;;;;;;;7.07;67.35;99372.06;5047252;28;20463;-56
2024/02/02 10:23:52;;;;;;;;;;;;;;;7.18;67.53;99373.00;5050439;28;19925;-56
2024/02/02 10:26:58;;;;;;;;;;;;;;;7.11;67.72;99366.97;5040960;28;20017;-56
2024/02/02 10:29:48;;;;;;;;;;;;;;;7.20;67.66;99354.66;5048213;28;19948;-56
2024/02/02 10:32:44;;;;;;;;;;;;;;;7.34;68.03;99349.66;5051565;28;20298;-56
2024/02/02 10:35:34;;;;;;;;;;;;;;;7.38;68.16;99358.88;5038743;28;19970;-56
2024/02/02 10:38:27;;;;;;;;;;;;;;;7.33;67.94;99348.84;5045937;28;20371;-56
2024/02/02 10:41:16;;;;;;;;;;;;;;;7.28;67.78;99332.56;5036605;28;20047;-56
2024/02/02 10:44:06;;;;;;;;;;;;;;;7.33;68.07;99324.50;5049481;28;19932;-56
2024/02/02 10:46:57;;;;;;;;;;;;;;;7.43;67.83;99321.09;5044856;28;20008;-57
2024/02/02 10:49:47;;;;;;;;;;;;;;;7.47;67.51;99310.59;5048388;28;19964;-56
2024/02/02 10:52:38;;;;;;;;;;;;;;;7.56;67.62;99306.31;5042278;28;20314;-55
2024/02/02 10:55:32;;;;;;;;;;;;;;;7.65;67.71;99291.25;5044584;28;19925;-56
2024/02/02 10:58:25;;;;;;;;;;;;;;;7.72;67.35;99309.97;5047700;28;19935;-56
2024/02/02 11:01:15;;;;;;;;;;;;;;;7.97;66.36;99312.06;5040617;28;19929;-55
2024/02/02 11:04:04;;;;;;;;;;;;;;;7.92;65.93;99298.50;5046337;28;20299;-56
2024/02/02 11:06:54;;;;;;;;;;;;;;;7.91;66.26;99302.28;5043510;28;19925;-56
2024/02/02 11:09:46;;;;;;;;;;;;;;;7.75;66.44;99304.06;5045158;28;19929;-56
2024/02/02 11:12:40;;;;;;;;;;;;;;;7.87;66.31;99297.38;5044934;28;20010;-59
2024/02/02 11:15:33;;;;;;;;;;;;;;;7.86;65.76;99286.81;5048766;28;19931;-56
2024/02/02 11:18:26;;;;;;;;;;;;;;;7.93;65.25;99270.34;5042277;28;19928;-57
2024/02/02 11:21:20;;;;;;;;;;;;;;;8.08;64.77;99273.16;5049309;28;20082;-56
2024/02/02 11:24:11;;;;;;;;;;;;;;;8.09;64.52;99285.63;5046667;28;20387;-56
2024/02/02 11:27:00;;;;;;;;;;;;;;;8.16;64.29;99272.69;5045929;28;19928;-56
2024/02/02 11:29:51;;;;;;;;;;;;;;;8.19;64.01;99266.72;5038545;28;19925;-56
2024/02/02 11:32:48;;;;;;;;;;;;;;;8.20;63.60;99257.53;5039247;28;19929;-59
2024/02/02 11:35:38;;;;;;;;;;;;;;;8.19;63.66;99257.78;5040303;28;19935;-56
2024/02/02 11:38:29;;;;;;;;;;;;;;;7.87;64.41;99251.38;5030389;28;19939;-56
2024/02/02 11:41:19;;;;;;;;;;;;;;;7.83;64.64;99255.69;5048391;28;19936;-56
2024/02/02 11:44:07;;;;;;;;;;;;;;;7.86;64.26;99244.34;5041688;28;19943;-56
2024/02/02 11:46:56;;;;;;;;;;;;;;;8.02;64.15;99244.44;5048610;28;19924;-56
2024/02/02 11:49:46;;;;;;;;;;;;;;;7.97;63.58;99244.41;5042391;28;20015;-57
2024/02/02 11:52:38;;;;;;;;;;;;;;;7.92;63.97;99252.50;5047595;28;20266;-55
2024/02/02 11:55:28;;;;;;;;;;;;;;;8.02;63.26;99252.56;5044788;28;19925;-56
2024/02/02 11:58:16;;;;;;;;;;;;;;;7.96;63.66;99245.50;5040244;28;20467;-56
2024/02/02 12:01:08;;;;;;;;;;;;;;;7.98;63.30;99240.63;5045584;28;19924;-56
2024/02/02 12:04:11;;;;;;;;;;;;;;;8.08;63.50;99235.28;5041820;28;20323;-56
2024/02/02 12:07:02;;;;;;;;;;;;;;;7.99;63.38;99226.00;5045389;28;19928;-56
2024/02/02 12:09:51;;;;;;;;;;;;;;;8.05;62.84;99222.28;5042727;28;20411;-56
2024/02/02 12:12:43;;;;;;;;;;;;;;;8.10;62.82;99214.19;5039312;28;20995;-56
2024/02/02 12:15:31;;;;;;;;;;;;;;;8.18;62.42;99204.75;5037913;28;19932;-56
2024/02/02 12:18:19;;;;;;;;;;;;;;;8.18;62.39;99207.44;5044812;28;19925;-57
2024/02/02 12:21:15;;;;;;;;;;;;;;;8.24;62.07;99204.50;5050696;28;19925;-56
2024/02/02 12:24:04;;;;;;;;;;;;;;;8.31;61.65;99199.66;5045205;28;20401;-56
2024/02/02 12:26:52;;;;;;;;;;;;;;;8.22;61.18;99198.53;5049056;28;19948;-57
2024/02/02 12:29:40;;;;;;;;;;;;;;;8.22;61.41;99187.69;5047977;28;20015;-56
2024/02/02 12:32:28;;;;;;;;;;;;;;;8.25;61.68;99192.56;5041074;28;19924;-56
2024/02/02 12:35:17;;;;;;;;;;;;;;;8.30;61.11;99184.47;5043838;28;19929;-56
2024/02/02 12:38:07;;;;;;;;;;;;;;;8.34;60.99;99174.75;5040234;28;19949;-57
2024/02/02 12:40:56;;;;;;;;;;;;;;;8.43;60.75;99172.38;5041558;28;19924;-56
2024/02/02 12:43:46;;;;;;;;;;;;;;;8.40;60.87;99168.28;5042721;28;19952;-56
2024/02/02 12:46:41;;;;;;;;;;;;;;;8.45;61.16;99169.41;5047505;28;20035;-58
2024/02/02 12:49:29;;;;;;;;;;;;;;;8.50;60.50;99161.28;5043704;28;20430;-59
2024/02/02 12:52:17;;;;;;;;;;;;;;;8.49;60.66;99163.19;5035134;28;20211;-56
2024/02/02 12:55:07;;;;;;;;;;;;;;;8.60;60.61;99161.31;5047531;28;20032;-59
2024/02/02 12:57:55;;;;;;;;;;;;;;;8.52;60.67;99159.94;5041237;28;19995;-56
2024/02/02 13:00:43;;;;;;;;;;;;;;;8.60;60.77;99161.31;5046761;28;19940;-57
2024/02/02 13:03:31;;;;;;;;;;;;;;;8.65;60.28;99158.63;5049338;28;19933;-59
2024/02/02 13:06:28;;;;;;;;;;;;;;;8.57;60.50;99156.41;5047981;28;19932;-56
2024/02/02 13:09:18;;;;;;;;;;;;;;;8.62;60.54;99143.69;5039493;28;20725;-56
2024/02/02 13:12:08;;;;;;;;;;;;;;;8.68;60.16;99139.09;5048073;28;19974;-55
2024/02/02 13:15:06;;;;;;;;;;;;;;;8.72;59.70;99140.19;5046801;28;20022;-56
2024/02/02 13:18:02;;;;;;;;;;;;;;;8.88;59.75;99151.88;5048399;28;19925;-56
2024/02/02 13:20:53;;;;;;;;;;;;;;;8.82;59.47;99142.91;5048132;28;19928;-55
2024/02/02 13:23:42;;;;;;;;;;;;;;;8.95;59.09;99135.34;5045030;28;20457;-55
2024/02/02 13:26:36;;;;;;;;;;;;;;;8.96;59.20;99126.13;5050381;28;19940;-57
2024/02/02 13:29:26;;;;;;;;;;;;;;;9.02;59.24;99135.91;5049793;28;20039;-57
2024/02/02 13:32:19;;;;;;;;;;;;;;;9.08;58.60;99123.97;5043727;28;20396;-57
2024/02/02 13:35:08;;;;;;;;;;;;;;;9.08;58.66;99118.53;5048236;28;19932;-57
2024/02/02 13:37:57;;;;;;;;;;;;;;;9.16;58.26;99123.41;5047472;28;19939;-56
2024/02/02 13:40:46;;;;;;;;;;;;;;;9.10;58.50;99119.06;5056637;22;19991;-91
2024/02/02 13:43:37;;;;;;;;;;;;;;;9.00;58.13;99116.34;5066405;28;20374;-91
2024/02/02 13:46:27;;;;;;;;;;;;;;;9.06;58.35;99120.72;5061311;28;19925;-90
2024/02/02 13:49:21;;;;;;;;;;;;;;;9.11;58.21;99110.69;5065771;28;19946;-92
2024/02/02 13:52:09;;;;;;;;;;;;;;;9.18;57.04;99105.78;5075076;28;19977;-91
2024/02/02 13:54:57;;;;;;;;;;;;;;;8.98;57.81;99105.00;5058836;28;20557;-90
2024/02/02 13:57:45;;;;;;;;;;;;;;;9.13;57.32;99105.78;5066041;28;19983;-90
2024/02/02 14:00:36;;;;;;;;;;;;;;;9.19;57.04;99096.56;5066503;28;20045;-90
2024/02/02 14:03:26;;;;;;;;;;;;;;;9.27;56.81;99092.50;5048168;28;19929;-91
2024/02/02 14:06:15;;;;;;;;;;;;;;;9.34;55.95;99084.88;5068076;28;19931;-91
2024/02/02 14:09:04;;;;;;;;;;;;;;;9.37;55.83;99076.19;5071545;28;20453;-88
2024/02/02 14:11:59;;;;;;;;;;;;;;;9.44;56.60;99068.59;5068553;28;19925;-89
2024/02/02 14:14:48;;;;;;;;;;;;;;;9.42;56.10;99069.94;5063773;28;20407;-87
2024/02/02 14:17:36;;;;;;;;;;;;;;;9.41;56.32;99073.75;5067988;28;19924;-87
2024/02/02 14:20:26;;;;;;;;;;;;;;;9.53;55.72;99071.53;5066594;28;20014;-90
2024/02/02 14:23:15;;;;;;;;;;;;;;;9.47;56.29;99072.63;5074462;28;19939;-90
2024/02/02 14:26:07;;;;;;;;;;;;;;;9.48;56.41;99076.16;5053646;28;19924;-86
2024/02/02 14:28:58;;;;;;;;;;;;;;;9.47;55.74;99082.69;5061432;28;19964;-89
2024/02/02 14:31:46;;;;;;;;;;;;;;;9.33;56.30;99079.75;5065795;28;19931;-88
2024/02/02 14:34:34;;;;;;;;;;;;;;;9.27;57.13;99078.09;5054899;28;19932;-90
2024/02/02 14:37:24;;;;;;;;;;;;;;;9.40;56.18;99075.66;5066318;28;20054;-90
2024/02/02 14:40:16;;;;;;;;;;;;;;;9.32;56.65;99069.97;5073674;28;19924;-89
2024/02/02 14:43:04;;;;;;;;;;;;;;;9.44;56.03;99070.50;5060398;28;19955;-90
2024/02/02 14:45:52;;;;;;;;;;;;;;;9.45;56.42;99070.22;5072136;28;19928;-90
2024/02/02 14:48:41;;;;;;;;;;;;;;;9.39;56.84;99074.03;5049735;28;19925;-91
2024/02/02 14:51:29;;;;;;;;;;;;;;;9.42;56.62;99075.38;5060185;28;20015;-90
2024/02/02 14:54:19;;;;;;;;;;;;;;;9.41;56.56;99069.13;5052415;28;19940;-90
2024/02/02 14:57:07;;;;;;;;;;;;;;;9.43;56.79;99064.25;5061246;28;19955;-91